Tahchee, Arizona
Current Conditions -  °F | °C
As of 2:53 AM on Monday 22 Dec 2014 (Local Time) from KRQE Reporting Station
Clear Clear  
Wind Chill: 30°   Ceiling: Unl
Heat Index: 36°   Visibility: 10mi
Dew Point: 29°   Wind: 7mph
Humidity: 76%   Direction: 190°S
Pressure: 30.02"   Gusts: NA
Location:  36.1012°N, 109.584°W
Report Text: KRQE 220953Z AUTO 19006KT 10SM CLR 02/M02 A3002 RMK AO2 SLP119 T00221017 TSNO
Loading
Personal Weather Stations






























Interactive Weather Map New forecast layout! Learn more

10-Day Weather Forecast

Advertisements
Track Severe Weather on mobile